sensor_id;sensor_type;location;lat;lon;timestamp;temperature;humidity
22827;DHT22;11580;52.562;13.418;2023-04-15T00:02:15;12.60;49.70
22827;DHT22;11580;52.562;13.418;2023-04-15T00:04:43;12.50;50.40
22827;DHT22;11580;52.562;13.418;2023-04-15T00:07:11;12.60;49.90
22827;DHT22;11580;52.562;13.418;2023-04-15T00:09:39;12.50;49.70
22827;DHT22;11580;52.562;13.418;2023-04-15T00:12:07;12.50;50.40
22827;DHT22;11580;52.562;13.418;2023-04-15T00:14:34;12.50;50.60
22827;DHT22;11580;52.562;13.418;2023-04-15T00:17:03;12.50;49.70
22827;DHT22;11580;52.562;13.418;2023-04-15T00:19:31;12.60;49.90
22827;DHT22;11580;52.562;13.418;2023-04-15T00:21:59;12.60;50.40
22827;DHT22;11580;52.562;13.418;2023-04-15T00:24:26;12.60;49.80
22827;DHT22;11580;52.562;13.418;2023-04-15T00:26:54;12.60;49.80
22827;DHT22;11580;52.562;13.418;2023-04-15T00:29:22;12.60;49.80
22827;DHT22;11580;52.562;13.418;2023-04-15T00:31:49;12.50;49.70
22827;DHT22;11580;52.562;13.418;2023-04-15T00:34:17;12.50;50.30
22827;DHT22;11580;52.562;13.418;2023-04-15T00:36:45;12.60;49.70
22827;DHT22;11580;52.562;13.418;2023-04-15T00:39:12;12.60;49.70
22827;DHT22;11580;52.562;13.418;2023-04-15T00:41:42;12.50;49.50
22827;DHT22;11580;52.562;13.418;2023-04-15T00:44:11;12.50;49.50
22827;DHT22;11580;52.562;13.418;2023-04-15T00:46:39;12.50;49.60
22827;DHT22;11580;52.562;13.418;2023-04-15T00:49:10;12.50;49.70
22827;DHT22;11580;52.562;13.418;2023-04-15T00:51:39;12.50;49.80
22827;DHT22;11580;52.562;13.418;2023-04-15T00:54:06;12.50;50.60
22827;DHT22;11580;52.562;13.418;2023-04-15T00:56:35;12.50;49.90
22827;DHT22;11580;52.562;13.418;2023-04-15T00:59:03;12.50;49.90
22827;DHT22;11580;52.562;13.418;2023-04-15T01:01:33;12.50;49.90
22827;DHT22;11580;52.562;13.418;2023-04-15T01:04:02;12.50;49.90
22827;DHT22;11580;52.562;13.418;2023-04-15T01:06:30;12.50;49.80
22827;DHT22;11580;52.562;13.418;2023-04-15T01:08:59;12.50;50.50
22827;DHT22;11580;52.562;13.418;2023-04-15T01:11:28;12.50;49.90
22827;DHT22;11580;52.562;13.418;2023-04-15T01:13:58;12.50;49.80
22827;DHT22;11580;52.562;13.418;2023-04-15T01:16:25;12.50;49.90
22827;DHT22;11580;52.562;13.418;2023-04-15T01:18:53;12.50;49.90
22827;DHT22;11580;52.562;13.418;2023-04-15T01:21:22;12.50;50.00
22827;DHT22;11580;52.562;13.418;2023-04-15T01:23:50;12.50;49.90
22827;DHT22;11580;52.562;13.418;2023-04-15T01:26:23;12.50;49.90
22827;DHT22;11580;52.562;13.418;2023-04-15T01:28:51;12.50;49.90
22827;DHT22;11580;52.562;13.418;2023-04-15T01:31:19;12.30;49.60
22827;DHT22;11580;52.562;13.418;2023-04-15T01:33:47;12.60;49.80
22827;DHT22;11580;52.562;13.418;2023-04-15T01:36:14;12.50;49.80
22827;DHT22;11580;52.562;13.418;2023-04-15T01:38:41;12.50;49.80
22827;DHT22;11580;52.562;13.418;2023-04-15T01:41:09;12.50;49.80
22827;DHT22;11580;52.562;13.418;2023-04-15T01:43:37;12.50;49.80
22827;DHT22;11580;52.562;13.418;2023-04-15T01:46:05;12.50;49.90
22827;DHT22;11580;52.562;13.418;2023-04-15T01:48:32;12.50;49.90
22827;DHT22;11580;52.562;13.418;2023-04-15T01:51:00;12.50;49.90
22827;DHT22;11580;52.562;13.418;2023-04-15T01:53:27;12.50;49.80
22827;DHT22;11580;52.562;13.418;2023-04-15T01:55:55;12.50;50.50
22827;DHT22;11580;52.562;13.418;2023-04-15T01:58:22;12.50;49.80
22827;DHT22;11580;52.562;13.418;2023-04-15T02:00:51;12.50;49.90
22827;DHT22;11580;52.562;13.418;2023-04-15T02:03:18;12.60;50.00
22827;DHT22;11580;52.562;13.418;2023-04-15T02:05:45;12.50;49.90
22827;DHT22;11580;52.562;13.418;2023-04-15T02:08:12;12.60;49.90
22827;DHT22;11580;52.562;13.418;2023-04-15T02:10:39;12.60;49.90
22827;DHT22;11580;52.562;13.418;2023-04-15T02:13:07;12.60;49.90
22827;DHT22;11580;52.562;13.418;2023-04-15T02:15:34;12.60;50.00
22827;DHT22;11580;52.562;13.418;2023-04-15T02:18:03;12.50;50.00
22827;DHT22;11580;52.562;13.418;2023-04-15T02:20:30;12.60;50.90
22827;DHT22;11580;52.562;13.418;2023-04-15T02:22:58;12.60;50.00
22827;DHT22;11580;52.562;13.418;2023-04-15T02:25:25;12.60;49.90
22827;DHT22;11580;52.562;13.418;2023-04-15T02:27:52;12.60;49.90
22827;DHT22;11580;52.562;13.418;2023-04-15T02:30:20;12.60;49.90
22827;DHT22;11580;52.562;13.418;2023-04-15T02:32:48;12.60;49.90
22827;DHT22;11580;52.562;13.418;2023-04-15T02:35:17;12.60;49.90
22827;DHT22;11580;52.562;13.418;2023-04-15T02:37:44;12.50;49.90
22827;DHT22;11580;52.562;13.418;2023-04-15T02:40:13;12.50;49.80
22827;DHT22;11580;52.562;13.418;2023-04-15T02:42:40;12.50;49.70
22827;DHT22;11580;52.562;13.418;2023-04-15T02:45:11;12.50;49.70
22827;DHT22;11580;52.562;13.418;2023-04-15T02:47:39;12.50;49.70
22827;DHT22;11580;52.562;13.418;2023-04-15T02:50:11;12.50;49.70
22827;DHT22;11580;52.562;13.418;2023-04-15T02:52:42;12.50;49.90
22827;DHT22;11580;52.562;13.418;2023-04-15T02:55:11;12.50;50.00
22827;DHT22;11580;52.562;13.418;2023-04-15T02:57:38;12.50;50.00
22827;DHT22;11580;52.562;13.418;2023-04-15T03:00:09;12.50;50.10
22827;DHT22;11580;52.562;13.418;2023-04-15T03:02:40;12.50;50.20
22827;DHT22;11580;52.562;13.418;2023-04-15T03:05:11;12.50;50.20
22827;DHT22;11580;52.562;13.418;2023-04-15T03:07:44;12.50;50.40
22827;DHT22;11580;52.562;13.418;2023-04-15T03:10:11;12.50;50.10
22827;DHT22;11580;52.562;13.418;2023-04-15T03:12:38;12.50;50.80
22827;DHT22;11580;52.562;13.418;2023-04-15T03:15:09;12.50;50.20
22827;DHT22;11580;52.562;13.418;2023-04-15T03:17:41;12.60;50.30
22827;DHT22;11580;52.562;13.418;2023-04-15T03:20:09;12.60;50.90
22827;DHT22;11580;52.562;13.418;2023-04-15T03:22:36;12.60;50.40
22827;DHT22;11580;52.562;13.418;2023-04-15T03:25:05;12.60;50.40
22827;DHT22;11580;52.562;13.418;2023-04-15T03:27:33;12.60;50.40
22827;DHT22;11580;52.562;13.418;2023-04-15T03:30:02;12.60;51.10
22827;DHT22;11580;52.562;13.418;2023-04-15T03:32:32;12.60;50.50
22827;DHT22;11580;52.562;13.418;2023-04-15T03:35:00;12.60;50.40
22827;DHT22;11580;52.562;13.418;2023-04-15T03:37:27;12.60;50.40
22827;DHT22;11580;52.562;13.418;2023-04-15T03:39:54;12.60;50.40
22827;DHT22;11580;52.562;13.418;2023-04-15T03:42:23;12.70;50.60
22827;DHT22;11580;52.562;13.418;2023-04-15T03:44:50;12.70;50.70
22827;DHT22;11580;52.562;13.418;2023-04-15T03:47:18;12.70;50.70
22827;DHT22;11580;52.562;13.418;2023-04-15T03:49:45;12.70;50.50
22827;DHT22;11580;52.562;13.418;2023-04-15T03:52:12;12.70;50.60
22827;DHT22;11580;52.562;13.418;2023-04-15T03:54:40;12.70;50.60
22827;DHT22;11580;52.562;13.418;2023-04-15T03:57:07;12.80;50.70
22827;DHT22;11580;52.562;13.418;2023-04-15T03:59:35;12.80;51.20
22827;DHT22;11580;52.562;13.418;2023-04-15T04:02:02;12.80;50.50
22827;DHT22;11580;52.562;13.418;2023-04-15T04:04:29;12.80;50.60
22827;DHT22;11580;52.562;13.418;2023-04-15T04:06:57;12.80;51.30
22827;DHT22;11580;52.562;13.418;2023-04-15T04:09:24;12.80;51.20
22827;DHT22;11580;52.562;13.418;2023-04-15T04:11:52;12.80;50.50
22827;DHT22;11580;52.562;13.418;2023-04-15T04:14:19;12.90;50.60
22827;DHT22;11580;52.562;13.418;2023-04-15T04:16:52;12.90;50.60
22827;DHT22;11580;52.562;13.418;2023-04-15T04:19:19;12.90;50.70
22827;DHT22;11580;52.562;13.418;2023-04-15T04:21:46;12.90;50.70
22827;DHT22;11580;52.562;13.418;2023-04-15T04:24:13;12.90;51.40
22827;DHT22;11580;52.562;13.418;2023-04-15T04:26:41;12.90;50.60
22827;DHT22;11580;52.562;13.418;2023-04-15T04:29:08;12.90;50.60
22827;DHT22;11580;52.562;13.418;2023-04-15T04:31:35;12.90;50.70
22827;DHT22;11580;52.562;13.418;2023-04-15T04:34:04;13.00;51.50
22827;DHT22;11580;52.562;13.418;2023-04-15T04:36:31;13.00;51.50
22827;DHT22;11580;52.562;13.418;2023-04-15T04:39:01;13.00;50.70
22827;DHT22;11580;52.562;13.418;2023-04-15T04:41:28;13.00;50.70
22827;DHT22;11580;52.562;13.418;2023-04-15T04:43:56;13.00;50.70
22827;DHT22;11580;52.562;13.418;2023-04-15T04:46:24;13.00;50.80
22827;DHT22;11580;52.562;13.418;2023-04-15T04:48:51;13.00;51.50
22827;DHT22;11580;52.562;13.418;2023-04-15T04:51:19;13.10;50.90
22827;DHT22;11580;52.562;13.418;2023-04-15T04:53:47;13.10;50.90
22827;DHT22;11580;52.562;13.418;2023-04-15T04:56:14;13.10;51.50
22827;DHT22;11580;52.562;13.418;2023-04-15T04:58:41;13.10;51.00
22827;DHT22;11580;52.562;13.418;2023-04-15T05:01:08;13.10;51.00
22827;DHT22;11580;52.562;13.418;2023-04-15T05:03:35;13.10;51.10
22827;DHT22;11580;52.562;13.418;2023-04-15T05:06:03;13.20;51.90
22827;DHT22;11580;52.562;13.418;2023-04-15T05:08:34;13.20;51.40
22827;DHT22;11580;52.562;13.418;2023-04-15T05:11:02;13.20;51.20
22827;DHT22;11580;52.562;13.418;2023-04-15T05:13:29;13.20;51.20
22827;DHT22;11580;52.562;13.418;2023-04-15T05:15:57;13.20;51.30
22827;DHT22;11580;52.562;13.418;2023-04-15T05:18:24;13.30;51.30
22827;DHT22;11580;52.562;13.418;2023-04-15T05:20:54;13.30;51.20
22827;DHT22;11580;52.562;13.418;2023-04-15T05:23:23;13.30;51.30
22827;DHT22;11580;52.562;13.418;2023-04-15T05:25:51;13.30;51.40
22827;DHT22;11580;52.562;13.418;2023-04-15T05:28:18;13.50;51.40
22827;DHT22;11580;52.562;13.418;2023-04-15T05:30:45;13.40;51.40
22827;DHT22;11580;52.562;13.418;2023-04-15T05:33:13;13.40;51.60
22827;DHT22;11580;52.562;13.418;2023-04-15T05:35:40;13.40;51.60
22827;DHT22;11580;52.562;13.418;2023-04-15T05:38:07;13.50;52.30
22827;DHT22;11580;52.562;13.418;2023-04-15T05:40:35;13.50;51.50
22827;DHT22;11580;52.562;13.418;2023-04-15T05:43:03;13.50;52.20
22827;DHT22;11580;52.562;13.418;2023-04-15T05:45:31;13.50;51.60
22827;DHT22;11580;52.562;13.418;2023-04-15T05:47:58;13.50;52.60
22827;DHT22;11580;52.562;13.418;2023-04-15T05:50:25;13.60;52.10
22827;DHT22;11580;52.562;13.418;2023-04-15T05:52:52;13.60;52.20
22827;DHT22;11580;52.562;13.418;2023-04-15T05:55:20;13.80;52.50
22827;DHT22;11580;52.562;13.418;2023-04-15T05:57:47;13.70;52.60
22827;DHT22;11580;52.562;13.418;2023-04-15T06:00:16;13.80;52.80
22827;DHT22;11580;52.562;13.418;2023-04-15T06:02:44;13.80;53.00
22827;DHT22;11580;52.562;13.418;2023-04-15T06:05:12;13.90;53.40
22827;DHT22;11580;52.562;13.418;2023-04-15T06:07:39;14.00;53.40
22827;DHT22;11580;52.562;13.418;2023-04-15T06:10:09;14.00;53.30
22827;DHT22;11580;52.562;13.418;2023-04-15T06:12:36;14.10;53.30
22827;DHT22;11580;52.562;13.418;2023-04-15T06:15:04;14.10;53.50
22827;DHT22;11580;52.562;13.418;2023-04-15T06:17:36;14.20;53.60
22827;DHT22;11580;52.562;13.418;2023-04-15T06:20:03;14.30;53.50
22827;DHT22;11580;52.562;13.418;2023-04-15T06:22:33;14.40;53.50
22827;DHT22;11580;52.562;13.418;2023-04-15T06:25:00;14.40;53.70
22827;DHT22;11580;52.562;13.418;2023-04-15T06:27:27;14.50;54.00
22827;DHT22;11580;52.562;13.418;2023-04-15T06:29:55;14.50;53.80
22827;DHT22;11580;52.562;13.418;2023-04-15T06:32:22;14.60;54.20
22827;DHT22;11580;52.562;13.418;2023-04-15T06:34:51;14.70;54.10
22827;DHT22;11580;52.562;13.418;2023-04-15T06:37:18;14.80;54.20
22827;DHT22;11580;52.562;13.418;2023-04-15T06:39:45;14.80;54.50
22827;DHT22;11580;52.562;13.418;2023-04-15T06:42:12;14.90;54.70
22827;DHT22;11580;52.562;13.418;2023-04-15T06:44:40;15.00;55.60
22827;DHT22;11580;52.562;13.418;2023-04-15T06:47:08;15.10;54.60
22827;DHT22;11580;52.562;13.418;2023-04-15T06:49:35;15.30;54.90
22827;DHT22;11580;52.562;13.418;2023-04-15T06:52:04;15.20;54.50
22827;DHT22;11580;52.562;13.418;2023-04-15T06:54:31;15.30;54.00
22827;DHT22;11580;52.562;13.418;2023-04-15T06:56:58;15.40;54.50
22827;DHT22;11580;52.562;13.418;2023-04-15T06:59:26;15.40;53.30
22827;DHT22;11580;52.562;13.418;2023-04-15T07:01:53;15.40;52.60
22827;DHT22;11580;52.562;13.418;2023-04-15T07:04:20;15.40;52.50
22827;DHT22;11580;52.562;13.418;2023-04-15T07:06:47;15.40;52.80
22827;DHT22;11580;52.562;13.418;2023-04-15T07:09:16;15.30;52.80
22827;DHT22;11580;52.562;13.418;2023-04-15T07:11:44;15.30;53.10
22827;DHT22;11580;52.562;13.418;2023-04-15T07:14:11;15.30;52.70
22827;DHT22;11580;52.562;13.418;2023-04-15T07:16:38;15.30;53.10
22827;DHT22;11580;52.562;13.418;2023-04-15T07:19:06;15.30;52.60
22827;DHT22;11580;52.562;13.418;2023-04-15T07:21:33;15.30;52.40
22827;DHT22;11580;52.562;13.418;2023-04-15T07:24:00;15.30;52.10
22827;DHT22;11580;52.562;13.418;2023-04-15T07:26:29;15.20;52.10
22827;DHT22;11580;52.562;13.418;2023-04-15T07:28:56;15.20;52.30
22827;DHT22;11580;52.562;13.418;2023-04-15T07:31:23;15.20;53.10
22827;DHT22;11580;52.562;13.418;2023-04-15T07:33:50;15.20;52.40
22827;DHT22;11580;52.562;13.418;2023-04-15T07:36:18;15.20;52.80
22827;DHT22;11580;52.562;13.418;2023-04-15T07:38:45;15.20;52.80
22827;DHT22;11580;52.562;13.418;2023-04-15T07:41:12;15.20;53.20
22827;DHT22;11580;52.562;13.418;2023-04-15T07:43:41;15.20;54.00
22827;DHT22;11580;52.562;13.418;2023-04-15T07:46:09;15.20;52.90
22827;DHT22;11580;52.562;13.418;2023-04-15T07:48:36;15.30;52.30
22827;DHT22;11580;52.562;13.418;2023-04-15T07:51:04;15.20;52.20
22827;DHT22;11580;52.562;13.418;2023-04-15T07:53:31;15.20;52.10
22827;DHT22;11580;52.562;13.418;2023-04-15T07:55:59;15.10;51.90
22827;DHT22;11580;52.562;13.418;2023-04-15T07:58:26;15.10;51.70
22827;DHT22;11580;52.562;13.418;2023-04-15T08:00:54;15.10;52.30
22827;DHT22;11580;52.562;13.418;2023-04-15T08:03:22;15.00;52.40
22827;DHT22;11580;52.562;13.418;2023-04-15T08:05:49;15.00;52.60
22827;DHT22;11580;52.562;13.418;2023-04-15T08:08:16;15.10;52.50
22827;DHT22;11580;52.562;13.418;2023-04-15T08:10:44;15.10;52.30
22827;DHT22;11580;52.562;13.418;2023-04-15T08:13:11;15.00;51.90
22827;DHT22;11580;52.562;13.418;2023-04-15T08:15:38;15.00;52.00
22827;DHT22;11580;52.562;13.418;2023-04-15T08:18:07;15.00;51.90
22827;DHT22;11580;52.562;13.418;2023-04-15T08:20:34;15.00;51.70
22827;DHT22;11580;52.562;13.418;2023-04-15T08:23:01;15.00;51.90
22827;DHT22;11580;52.562;13.418;2023-04-15T08:25:29;15.00;51.70
22827;DHT22;11580;52.562;13.418;2023-04-15T08:28:03;15.00;51.40
22827;DHT22;11580;52.562;13.418;2023-04-15T08:30:31;15.00;51.00
22827;DHT22;11580;52.562;13.418;2023-04-15T08:32:59;14.90;51.00
22827;DHT22;11580;52.562;13.418;2023-04-15T08:35:28;14.90;51.90
22827;DHT22;11580;52.562;13.418;2023-04-15T08:37:56;14.90;51.40
22827;DHT22;11580;52.562;13.418;2023-04-15T08:40:27;14.90;51.80
22827;DHT22;11580;52.562;13.418;2023-04-15T08:43:08;14.90;51.60
22827;DHT22;11580;52.562;13.418;2023-04-15T08:45:38;14.90;52.00
22827;DHT22;11580;52.562;13.418;2023-04-15T08:48:06;14.80;51.30
22827;DHT22;11580;52.562;13.418;2023-04-15T08:50:40;14.90;51.20
22827;DHT22;11580;52.562;13.418;2023-04-15T08:53:08;14.80;51.80
22827;DHT22;11580;52.562;13.418;2023-04-15T08:55:41;14.80;51.30
22827;DHT22;11580;52.562;13.418;2023-04-15T08:58:10;14.80;51.10
22827;DHT22;11580;52.562;13.418;2023-04-15T09:00:38;14.80;50.60
22827;DHT22;11580;52.562;13.418;2023-04-15T09:03:06;14.80;50.30
22827;DHT22;11580;52.562;13.418;2023-04-15T09:05:34;14.80;50.30
22827;DHT22;11580;52.562;13.418;2023-04-15T09:08:04;14.70;50.70
22827;DHT22;11580;52.562;13.418;2023-04-15T09:10:32;14.50;50.40
22827;DHT22;11580;52.562;13.418;2023-04-15T09:13:00;14.70;50.80
22827;DHT22;11580;52.562;13.418;2023-04-15T09:15:27;14.70;51.90
22827;DHT22;11580;52.562;13.418;2023-04-15T09:17:58;14.70;51.10
22827;DHT22;11580;52.562;13.418;2023-04-15T09:20:25;14.70;51.20
22827;DHT22;11580;52.562;13.418;2023-04-15T09:22:53;14.70;51.30
22827;DHT22;11580;52.562;13.418;2023-04-15T09:25:28;14.70;51.60
22827;DHT22;11580;52.562;13.418;2023-04-15T09:27:57;14.70;50.80
22827;DHT22;11580;52.562;13.418;2023-04-15T09:30:27;14.80;51.70
22827;DHT22;11580;52.562;13.418;2023-04-15T09:32:56;14.80;51.60
22827;DHT22;11580;52.562;13.418;2023-04-15T09:35:26;14.80;51.60
22827;DHT22;11580;52.562;13.418;2023-04-15T09:38:01;14.90;51.80
22827;DHT22;11580;52.562;13.418;2023-04-15T09:40:35;14.90;50.40
22827;DHT22;11580;52.562;13.418;2023-04-15T09:43:04;15.00;50.50
22827;DHT22;11580;52.562;13.418;2023-04-15T09:45:33;15.00;51.00
22827;DHT22;11580;52.562;13.418;2023-04-15T09:48:15;15.00;50.80
22827;DHT22;11580;52.562;13.418;2023-04-15T09:50:46;15.00;49.80
22827;DHT22;11580;52.562;13.418;2023-04-15T09:53:19;15.00;51.20
22827;DHT22;11580;52.562;13.418;2023-04-15T09:55:51;15.10;50.10
22827;DHT22;11580;52.562;13.418;2023-04-15T09:58:20;15.00;50.20
22827;DHT22;11580;52.562;13.418;2023-04-15T10:00:49;15.00;50.50
22827;DHT22;11580;52.562;13.418;2023-04-15T10:03:20;15.00;50.50
22827;DHT22;11580;52.562;13.418;2023-04-15T10:05:49;15.00;50.50
22827;DHT22;11580;52.562;13.418;2023-04-15T10:08:18;15.00;50.30
22827;DHT22;11580;52.562;13.418;2023-04-15T10:10:47;15.00;50.40
22827;DHT22;11580;52.562;13.418;2023-04-15T10:13:17;15.00;50.00
22827;DHT22;11580;52.562;13.418;2023-04-15T10:15:50;14.90;49.90
22827;DHT22;11580;52.562;13.418;2023-04-15T10:18:33;14.90;49.60
22827;DHT22;11580;52.562;13.418;2023-04-15T10:21:04;14.90;49.60
22827;DHT22;11580;52.562;13.418;2023-04-15T10:23:33;14.90;50.10
22827;DHT22;11580;52.562;13.418;2023-04-15T10:26:03;14.80;50.00
22827;DHT22;11580;52.562;13.418;2023-04-15T10:28:31;14.80;49.90
22827;DHT22;11580;52.562;13.418;2023-04-15T10:30:59;14.90;50.40
22827;DHT22;11580;52.562;13.418;2023-04-15T10:33:28;14.70;50.30
22827;DHT22;11580;52.562;13.418;2023-04-15T10:35:55;14.70;51.20
22827;DHT22;11580;52.562;13.418;2023-04-15T10:38:33;14.70;50.70
22827;DHT22;11580;52.562;13.418;2023-04-15T10:41:14;14.70;51.40
22827;DHT22;11580;52.562;13.418;2023-04-15T10:43:51;14.70;51.60
22827;DHT22;11580;52.562;13.418;2023-04-15T10:46:21;14.80;52.10
22827;DHT22;11580;52.562;13.418;2023-04-15T10:48:51;14.80;52.00
22827;DHT22;11580;52.562;13.418;2023-04-15T10:51:30;14.90;52.00
22827;DHT22;11580;52.562;13.418;2023-04-15T10:53:58;14.80;52.40
22827;DHT22;11580;52.562;13.418;2023-04-15T10:56:29;14.90;52.50
22827;DHT22;11580;52.562;13.418;2023-04-15T10:58:58;14.90;52.40
22827;DHT22;11580;52.562;13.418;2023-04-15T11:01:52;14.90;52.20
22827;DHT22;11580;52.562;13.418;2023-04-15T11:04:52;14.90;52.80
22827;DHT22;11580;52.562;13.418;2023-04-15T11:07:36;15.00;52.60
22827;DHT22;11580;52.562;13.418;2023-04-15T11:13:25;15.00;52.20
22827;DHT22;11580;52.562;13.418;2023-04-15T11:16:01;15.00;52.40
22827;DHT22;11580;52.562;13.418;2023-04-15T11:18:30;14.90;51.60
22827;DHT22;11580;52.562;13.418;2023-04-15T11:21:00;14.90;51.30
22827;DHT22;11580;52.562;13.418;2023-04-15T11:23:32;14.90;51.40
22827;DHT22;11580;52.562;13.418;2023-04-15T11:26:02;14.90;52.30
22827;DHT22;11580;52.562;13.418;2023-04-15T11:28:35;14.80;51.40
22827;DHT22;11580;52.562;13.418;2023-04-15T11:31:07;14.80;51.20
22827;DHT22;11580;52.562;13.418;2023-04-15T11:33:37;14.80;51.60
22827;DHT22;11580;52.562;13.418;2023-04-15T11:36:10;14.80;51.10
22827;DHT22;11580;52.562;13.418;2023-04-15T11:38:41;14.70;51.60
22827;DHT22;11580;52.562;13.418;2023-04-15T11:41:10;14.70;51.20
22827;DHT22;11580;52.562;13.418;2023-04-15T11:43:39;14.70;51.80
22827;DHT22;11580;52.562;13.418;2023-04-15T11:46:06;14.70;51.50
22827;DHT22;11580;52.562;13.418;2023-04-15T11:48:35;14.60;51.30
22827;DHT22;11580;52.562;13.418;2023-04-15T11:51:04;14.60;51.40
22827;DHT22;11580;52.562;13.418;2023-04-15T11:53:36;14.60;51.30
22827;DHT22;11580;52.562;13.418;2023-04-15T11:56:06;14.60;51.70
22827;DHT22;11580;52.562;13.418;2023-04-15T11:58:36;14.60;51.90
22827;DHT22;11580;52.562;13.418;2023-04-15T12:01:05;14.60;51.50
22827;DHT22;11580;52.562;13.418;2023-04-15T12:03:37;14.60;51.50
22827;DHT22;11580;52.562;13.418;2023-04-15T12:06:10;14.60;51.70
22827;DHT22;11580;52.562;13.418;2023-04-15T12:08:51;14.50;52.10
22827;DHT22;11580;52.562;13.418;2023-04-15T12:11:31;14.60;52.50
22827;DHT22;11580;52.562;13.418;2023-04-15T12:14:04;14.50;52.50
22827;DHT22;11580;52.562;13.418;2023-04-15T12:16:36;14.50;52.40
22827;DHT22;11580;52.562;13.418;2023-04-15T12:19:06;14.60;53.30
22827;DHT22;11580;52.562;13.418;2023-04-15T12:21:38;14.60;53.00
22827;DHT22;11580;52.562;13.418;2023-04-15T12:24:08;14.60;53.40
22827;DHT22;11580;52.562;13.418;2023-04-15T12:26:41;14.60;53.30
22827;DHT22;11580;52.562;13.418;2023-04-15T12:29:11;14.70;53.10
22827;DHT22;11580;52.562;13.418;2023-04-15T12:31:47;14.70;53.20
22827;DHT22;11580;52.562;13.418;2023-04-15T12:34:16;14.80;53.50
22827;DHT22;11580;52.562;13.418;2023-04-15T12:36:45;14.80;53.20
22827;DHT22;11580;52.562;13.418;2023-04-15T12:39:12;14.80;52.70
22827;DHT22;11580;52.562;13.418;2023-04-15T12:41:39;14.80;52.80
22827;DHT22;11580;52.562;13.418;2023-04-15T12:44:07;14.80;52.80
22827;DHT22;11580;52.562;13.418;2023-04-15T12:46:34;14.80;52.50
22827;DHT22;11580;52.562;13.418;2023-04-15T12:49:02;14.80;52.40
22827;DHT22;11580;52.562;13.418;2023-04-15T12:51:30;14.80;52.70
22827;DHT22;11580;52.562;13.418;2023-04-15T12:53:57;14.80;52.80
22827;DHT22;11580;52.562;13.418;2023-04-15T12:56:24;14.90;53.20
22827;DHT22;11580;52.562;13.418;2023-04-15T12:58:52;14.90;53.50
22827;DHT22;11580;52.562;13.418;2023-04-15T13:01:19;14.90;53.50
22827;DHT22;11580;52.562;13.418;2023-04-15T13:03:47;14.90;53.80
22827;DHT22;11580;52.562;13.418;2023-04-15T13:06:16;15.00;54.20
22827;DHT22;11580;52.562;13.418;2023-04-15T13:08:43;15.00;54.20
22827;DHT22;11580;52.562;13.418;2023-04-15T13:11:11;15.10;54.00
22827;DHT22;11580;52.562;13.418;2023-04-15T13:13:38;15.10;53.70
22827;DHT22;11580;52.562;13.418;2023-04-15T13:16:05;15.20;53.60
22827;DHT22;11580;52.562;13.418;2023-04-15T13:18:33;15.20;53.70
22827;DHT22;11580;52.562;13.418;2023-04-15T13:21:00;15.20;53.20
22827;DHT22;11580;52.562;13.418;2023-04-15T13:23:29;15.20;53.00
22827;DHT22;11580;52.562;13.418;2023-04-15T13:25:56;15.20;52.70
22827;DHT22;11580;52.562;13.418;2023-04-15T13:28:23;15.20;52.70
22827;DHT22;11580;52.562;13.418;2023-04-15T13:30:50;15.20;52.70
22827;DHT22;11580;52.562;13.418;2023-04-15T13:33:18;15.30;52.80
22827;DHT22;11580;52.562;13.418;2023-04-15T13:35:45;15.20;53.10
22827;DHT22;11580;52.562;13.418;2023-04-15T13:38:12;15.20;53.30
22827;DHT22;11580;52.562;13.418;2023-04-15T13:40:41;15.20;53.70
22827;DHT22;11580;52.562;13.418;2023-04-15T13:43:08;15.30;53.90
22827;DHT22;11580;52.562;13.418;2023-04-15T13:45:35;15.20;53.00
22827;DHT22;11580;52.562;13.418;2023-04-15T13:48:03;15.20;52.70
22827;DHT22;11580;52.562;13.418;2023-04-15T13:50:30;15.20;52.60
22827;DHT22;11580;52.562;13.418;2023-04-15T13:52:58;15.10;52.50
22827;DHT22;11580;52.562;13.418;2023-04-15T13:55:25;15.10;52.80
22827;DHT22;11580;52.562;13.418;2023-04-15T13:57:55;15.10;52.40
22827;DHT22;11580;52.562;13.418;2023-04-15T14:00:22;15.10;52.40
22827;DHT22;11580;52.562;13.418;2023-04-15T14:02:50;15.10;52.50
22827;DHT22;11580;52.562;13.418;2023-04-15T14:05:17;15.10;52.70
22827;DHT22;11580;52.562;13.418;2023-04-15T14:07:44;15.10;53.30
22827;DHT22;11580;52.562;13.418;2023-04-15T14:10:11;15.10;52.90
22827;DHT22;11580;52.562;13.418;2023-04-15T14:12:39;15.00;53.10
22827;DHT22;11580;52.562;13.418;2023-04-15T14:15:09;15.10;53.20
22827;DHT22;11580;52.562;13.418;2023-04-15T14:17:36;15.10;53.20
22827;DHT22;11580;52.562;13.418;2023-04-15T14:20:06;15.10;52.90
22827;DHT22;11580;52.562;13.418;2023-04-15T14:22:34;15.10;53.30
22827;DHT22;11580;52.562;13.418;2023-04-15T14:25:08;15.10;53.10
22827;DHT22;11580;52.562;13.418;2023-04-15T14:27:36;15.10;52.90
22827;DHT22;11580;52.562;13.418;2023-04-15T14:30:04;15.10;52.50
22827;DHT22;11580;52.562;13.418;2023-04-15T14:32:33;15.10;52.40
22827;DHT22;11580;52.562;13.418;2023-04-15T14:35:00;15.10;52.40
22827;DHT22;11580;52.562;13.418;2023-04-15T14:37:28;15.10;52.40
22827;DHT22;11580;52.562;13.418;2023-04-15T14:40:02;15.00;53.00
22827;DHT22;11580;52.562;13.418;2023-04-15T14:42:29;15.00;53.30
22827;DHT22;11580;52.562;13.418;2023-04-15T14:44:57;15.00;52.50
22827;DHT22;11580;52.562;13.418;2023-04-15T14:47:24;15.00;52.50
22827;DHT22;11580;52.562;13.418;2023-04-15T14:49:53;15.00;52.40
22827;DHT22;11580;52.562;13.418;2023-04-15T14:52:20;15.00;52.50
22827;DHT22;11580;52.562;13.418;2023-04-15T14:54:47;15.00;52.40
22827;DHT22;11580;52.562;13.418;2023-04-15T14:57:15;15.00;52.20
22827;DHT22;11580;52.562;13.418;2023-04-15T14:59:42;14.90;52.40
22827;DHT22;11580;52.562;13.418;2023-04-15T15:02:09;14.90;53.30
22827;DHT22;11580;52.562;13.418;2023-04-15T15:04:36;14.90;52.80
22827;DHT22;11580;52.562;13.418;2023-04-15T15:07:06;14.90;52.80
22827;DHT22;11580;52.562;13.418;2023-04-15T15:09:33;14.90;52.80
22827;DHT22;11580;52.562;13.418;2023-04-15T15:12:01;14.90;53.30
22827;DHT22;11580;52.562;13.418;2023-04-15T15:14:28;14.90;53.00
22827;DHT22;11580;52.562;13.418;2023-04-15T15:16:55;14.90;53.40
22827;DHT22;11580;52.562;13.418;2023-04-15T15:19:22;14.90;52.50
22827;DHT22;11580;52.562;13.418;2023-04-15T15:21:50;14.90;52.80
22827;DHT22;11580;52.562;13.418;2023-04-15T15:24:18;15.00;53.60
22827;DHT22;11580;52.562;13.418;2023-04-15T15:26:46;15.00;52.40
22827;DHT22;11580;52.562;13.418;2023-04-15T15:29:13;14.90;52.00